Wetterdaten: Woche 21.08.23 - 27.08.23 (KW34)
Datum Zeit Temp. Aussen Temp. o. S. Temp +5cm Feuchte Auss Luftdruck Regen Sonnenschein Regendauer Solar Windben Empfang
21.08.2023 00:00 19,6 C 18,1 C 15,0 C 89 % 1022,9 hPa 0,0 l/m 0,00 h 0,00 h 0 W/m 0,0 km/h (0 Bft) 96,17 %
21.08.2023 01:00 19,0 C 18,0 C 14,9 C 89 % 1023,0 hPa 0,0 l/m 0,00 h 0,00 h 0 W/m 2,7 km/h (1 Bft) 98,21 %
21.08.2023 02:00 18,7 C 17,8 C 14,5 C 89 % 1022,7 hPa 0,0 l/m 0,00 h 0,00 h 0 W/m 1,6 km/h (1 Bft) 98,28 %
21.08.2023 03:00 18,6 C 17,5 C 14,2 C 88 % 1022,8 hPa 0,0 l/m 0,00 h 0,00 h 0 W/m 1,3 km/h (1 Bft) 96,84 %
21.08.2023 04:00 18,1 C 16,4 C 13,4 C 90 % 1022,7 hPa 0,0 l/m 0,00 h 0,00 h 0 W/m 0,0 km/h (0 Bft) 98,52 %
21.08.2023 05:00 17,5 C 16,7 C 13,6 C 91 % 1022,5 hPa 0,0 l/m 0,00 h 0,00 h 0 W/m 3,0 km/h (1 Bft) 96,36 %
21.08.2023 06:00 17,9 C 17,2 C 13,9 C 89 % 1022,6 hPa 0,0 l/m 0,00 h 0,00 h 12 W/m 2,5 km/h (1 Bft) 98,14 %
21.08.2023 07:00 18,3 C 18,1 C 14,7 C 89 % 1022,8 hPa 0,0 l/m 0,00 h 0,00 h 32 W/m 0,6 km/h (0 Bft) 95,93 %
21.08.2023 08:00 19,2 C 19,3 C 15,4 C 87 % 1023,1 hPa 0,0 l/m 0,27 h 0,00 h 127 W/m 1,6 km/h (1 Bft) 98,14 %
21.08.2023 09:00 21,2 C 23,2 C 17,1 C 81 % 1023,4 hPa 0,0 l/m 0,67 h 0,00 h 260 W/m 7,8 km/h (2 Bft) 96,77 %
21.08.2023 10:00 22,6 C 23,3 C 18,3 C 76 % 1023,4 hPa 0,0 l/m 0,60 h 0,00 h 378 W/m 8,7 km/h (2 Bft) 99,15 %
21.08.2023 11:00 24,3 C 26,9 C 20,0 C 71 % 1023,4 hPa 0,0 l/m 1,00 h 0,00 h 680 W/m 9,0 km/h (2 Bft) 96,31 %
21.08.2023 12:00 26,1 C 30,1 C 22,2 C 65 % 1023,2 hPa 0,0 l/m 1,00 h 0,00 h 810 W/m 6,8 km/h (2 Bft) 97,32 %
21.08.2023 13:00 26,5 C 27,4 C 21,8 C 64 % 1023,3 hPa 0,0 l/m 0,90 h 0,00 h 661 W/m 9,5 km/h (2 Bft) 98,34 %
21.08.2023 14:00 27,4 C 34,1 C 21,9 C 63 % 1023,1 hPa 0,0 l/m 1,00 h 0,00 h 741 W/m 10,0 km/h (2 Bft) 96,40 %
21.08.2023 15:00 28,1 C 30,8 C 22,5 C 61 % 1023,0 hPa 0,0 l/m 1,00 h 0,00 h 798 W/m 14,1 km/h (3 Bft) 98,00 %
21.08.2023 16:00 27,9 C 28,8 C 22,9 C 61 % 1022,7 hPa 0,0 l/m 0,87 h 0,00 h 633 W/m 11,4 km/h (2 Bft) 98,44 %
21.08.2023 17:00 27,7 C 30,4 C 22,9 C 60 % 1022,2 hPa 0,0 l/m 0,93 h 0,00 h 471 W/m 8,5 km/h (2 Bft) 96,32 %
21.08.2023 18:00 28,2 C 30,6 C 23,1 C 58 % 1021,8 hPa 0,0 l/m 0,97 h 0,00 h 303 W/m 5,7 km/h (1 Bft) 97,92 %
21.08.2023 19:00 26,5 C 25,0 C 21,0 C 63 % 1021,5 hPa 0,0 l/m 0,00 h 0,00 h 40 W/m 7,6 km/h (2 Bft) 99,16 %
21.08.2023 20:00 24,4 C 22,8 C 18,8 C 71 % 1021,4 hPa 0,0 l/m 0,00 h 0,00 h 14 W/m 1,1 km/h (0 Bft) 94,86 %
21.08.2023 21:00 22,9 C 21,1 C 17,0 C 79 % 1021,7 hPa 0,0 l/m 0,00 h 0,00 h 0 W/m 0,1 km/h (0 Bft) 99,37 %
21.08.2023 22:00 21,2 C 19,6 C 15,9 C 84 % 1021,8 hPa 0,0 l/m 0,00 h 0,00 h 0 W/m 0,0 km/h (0 Bft) 97,80 %
21.08.2023 23:00 20,2 C 18,8 C 15,2 C 87 % 1021,7 hPa 0,0 l/m 0,00 h 0,00 h 0 W/m 0,4 km/h (0 Bft) 96,25 %
22.08.2023 02:00 17,9 C 16,7 C 13,9 C 92 % 1020,7 hPa 0,0 l/m 0,00 h 0,00 h 0 W/m 0,0 km/h (0 Bft) 95,90 %
22.08.2023 03:00 17,8 C 16,7 C 13,3 C 92 % 1020,6 hPa 0,0 l/m 0,00 h 0,00 h 0 W/m 0,0 km/h (0 Bft) 97,10 %
22.08.2023 04:00 17,3 C 16,2 C 13,1 C 93 % 1020,4 hPa 0,0 l/m 0,00 h 0,00 h 0 W/m 0,0 km/h (0 Bft) 98,44 %
22.08.2023 05:00 17,0 C 15,8 C 12,8 C 94 % 1020,3 hPa 0,0 l/m 0,00 h 0,00 h 0 W/m 0,0 km/h (0 Bft) 96,53 %
22.08.2023 06:00 16,6 C 15,6 C 12,6 C 94 % 1020,3 hPa 0,0 l/m 0,00 h 0,00 h 7 W/m 0,0 km/h (0 Bft) 96,85 %
22.08.2023 07:00 16,6 C 16,1 C 12,9 C 95 % 1020,3 hPa 0,0 l/m 0,00 h 0,00 h 28 W/m 0,0 km/h (0 Bft) 99,00 %
22.08.2023 08:00 17,3 C 17,6 C 14,0 C 96 % 1020,5 hPa 0,0 l/m 0,27 h 0,00 h 105 W/m 0,0 km/h (0 Bft) 96,12 %
22.08.2023 09:00 19,6 C 22,8 C 16,9 C 93 % 1020,7 hPa 0,0 l/m 0,50 h 0,00 h 272 W/m 0,0 km/h (0 Bft) 98,01 %
22.08.2023 10:00 22,8 C 24,2 C 18,9 C 78 % 1021,1 hPa 0,0 l/m 0,87 h 0,00 h 366 W/m 0,0 km/h (0 Bft) 99,08 %
22.08.2023 11:00 23,9 C 24,9 C 20,0 C 74 % 1021,2 hPa 0,0 l/m 0,50 h 0,00 h 358 W/m 0,0 km/h (0 Bft) 95,95 %
22.08.2023 12:00 24,0 C 24,6 C 20,2 C 73 % 1021,1 hPa 0,0 l/m 0,23 h 0,00 h 339 W/m 0,0 km/h (0 Bft) 97,83 %
22.08.2023 13:00 24,8 C 25,9 C 21,1 C 69 % 1021,0 hPa 0,0 l/m 0,83 h 0,00 h 470 W/m 2,6 km/h (1 Bft) 97,94 %
22.08.2023 14:00 26,1 C 29,3 C 21,4 C 63 % 1021,1 hPa 0,0 l/m 0,67 h 0,00 h 601 W/m 9,1 km/h (2 Bft) 97,22 %
22.08.2023 15:00 25,8 C 26,2 C 21,5 C 65 % 1020,9 hPa 0,0 l/m 0,47 h 0,00 h 353 W/m 10,0 km/h (2 Bft) 97,09 %
22.08.2023 16:00 25,9 C 26,3 C 21,5 C 64 % 1020,8 hPa 0,0 l/m 0,73 h 0,00 h 365 W/m 8,5 km/h (2 Bft) 97,51 %
22.08.2023 17:00 26,1 C 28,9 C 21,6 C 65 % 1020,5 hPa 0,0 l/m 1,00 h 0,00 h 420 W/m 9,2 km/h (2 Bft) 98,71 %
22.08.2023 18:00 25,9 C 26,8 C 21,5 C 65 % 1020,5 hPa 0,0 l/m 0,72 h 0,00 h 261 W/m 8,2 km/h (2 Bft) 96,14 %
22.08.2023 19:00 24,7 C 23,5 C 19,7 C 68 % 1020,3 hPa 0,0 l/m 0,00 h 0,00 h 38 W/m 6,8 km/h (2 Bft) 97,82 %
22.08.2023 20:00 23,1 C 21,2 C 17,7 C 72 % 1020,6 hPa 0,0 l/m 0,00 h 0,00 h 13 W/m 1,6 km/h (1 Bft) 98,40 %
22.08.2023 21:00 21,1 C 19,1 C 15,6 C 80 % 1020,9 hPa 0,0 l/m 0,00 h 0,00 h 0 W/m 0,0 km/h (0 Bft) 96,58 %
22.08.2023 22:00 19,5 C 17,7 C 14,4 C 84 % 1020,9 hPa 0,0 l/m 0,00 h 0,00 h 0 W/m 0,0 km/h (0 Bft) 96,90 %
22.08.2023 23:00 18,3 C 16,8 C 13,5 C 88 % 1020,9 hPa 0,0 l/m 0,00 h 0,00 h 0 W/m 0,0 km/h (0 Bft) 98,15 %
23.08.2023 00:00 17,6 C 16,5 C 13,1 C 90 % 1021,0 hPa 0,0 l/m 0,00 h 0,00 h 0 W/m 0,0 km/h (0 Bft) 98,37 %
23.08.2023 01:00 17,0 C 15,6 C 12,4 C 91 % 1021,0 hPa 0,0 l/m 0,00 h 0,00 h 0 W/m 0,0 km/h (0 Bft) 95,53 %
23.08.2023 02:00 16,5 C 15,1 C 12,2 C 92 % 1020,8 hPa 0,0 l/m 0,00 h 0,00 h 0 W/m 0,0 km/h (0 Bft) 98,88 %
23.08.2023 03:00 16,0 C 14,6 C 11,8 C 93 % 1020,7 hPa 0,0 l/m 0,00 h 0,00 h 0 W/m 0,0 km/h (0 Bft) 99,71 %
23.08.2023 04:00 15,6 C 14,4 C 11,7 C 94 % 1020,5 hPa 0,0 l/m 0,00 h 0,00 h 0 W/m 0,0 km/h (0 Bft) 99,49 %
23.08.2023 05:00 15,3 C 14,0 C 11,1 C 95 % 1020,3 hPa 0,0 l/m 0,00 h 0,00 h 0 W/m 0,0 km/h (0 Bft) 98,54 %
23.08.2023 06:00 14,9 C 13,8 C 10,8 C 95 % 1020,3 hPa 0,0 l/m 0,00 h 0,00 h 8 W/m 0,0 km/h (0 Bft) 99,63 %
23.08.2023 07:00 14,9 C 14,5 C 11,4 C 96 % 1020,4 hPa 0,0 l/m 0,00 h 0,00 h 27 W/m 0,0 km/h (0 Bft) 99,42 %
23.08.2023 08:00 16,1 C 16,5 C 13,1 C 97 % 1020,5 hPa 0,0 l/m 0,23 h 0,00 h 93 W/m 0,0 km/h (0 Bft) 94,93 %
23.08.2023 09:00 18,2 C 21,8 C 15,1 C 95 % 1020,9 hPa 0,0 l/m 0,63 h 0,00 h 245 W/m 1,0 km/h (0 Bft) 99,08 %
23.08.2023 10:00 20,8 C 22,3 C 17,0 C 83 % 1021,1 hPa 0,0 l/m 0,40 h 0,00 h 298 W/m 3,9 km/h (1 Bft) 97,44 %
23.08.2023 11:00 23,1 C 26,0 C 18,8 C 74 % 1020,9 hPa 0,0 l/m 1,00 h 0,00 h 667 W/m 6,2 km/h (2 Bft) 96,70 %
23.08.2023 12:00 25,4 C 30,9 C 21,4 C 67 % 1020,7 hPa 0,0 l/m 0,93 h 0,00 h 691 W/m 8,0 km/h (2 Bft) 97,61 %
23.08.2023 13:00 26,1 C 26,4 C 21,0 C 65 % 1020,5 hPa 0,0 l/m 0,80 h 0,00 h 628 W/m 10,1 km/h (2 Bft) 98,22 %
23.08.2023 14:00 27,0 C 33,7 C 21,3 C 59 % 1020,1 hPa 0,0 l/m 0,95 h 0,00 h 791 W/m 11,3 km/h (2 Bft) 96,40 %
23.08.2023 15:00 28,1 C 29,9 C 21,9 C 53 % 1019,7 hPa 0,0 l/m 0,98 h 0,00 h 728 W/m 11,1 km/h (2 Bft) 99,14 %
23.08.2023 16:00 28,2 C 28,3 C 22,3 C 48 % 1019,4 hPa 0,0 l/m 1,00 h 0,00 h 621 W/m 11,3 km/h (2 Bft) 96,44 %
23.08.2023 17:00 28,4 C 31,4 C 22,9 C 47 % 1019,3 hPa 0,0 l/m 1,00 h 0,00 h 474 W/m 8,7 km/h (2 Bft) 96,74 %
23.08.2023 18:00 28,2 C 30,4 C 22,9 C 49 % 1019,1 hPa 0,0 l/m 0,85 h 0,00 h 265 W/m 6,2 km/h (2 Bft) 99,84 %
23.08.2023 19:00 26,9 C 25,6 C 20,8 C 51 % 1018,9 hPa 0,0 l/m 0,00 h 0,00 h 34 W/m 5,1 km/h (1 Bft) 96,93 %
23.08.2023 20:00 24,7 C 22,4 C 17,9 C 60 % 1019,0 hPa 0,0 l/m 0,00 h 0,00 h 11 W/m 0,1 km/h (0 Bft) 97,79 %
23.08.2023 21:00 22,2 C 20,0 C 16,2 C 71 % 1019,0 hPa 0,0 l/m 0,00 h 0,00 h 0 W/m 0,4 km/h (0 Bft) 97,61 %
23.08.2023 22:00 20,5 C 19,0 C 15,3 C 76 % 1019,1 hPa 0,0 l/m 0,00 h 0,00 h 0 W/m 0,1 km/h (0 Bft) 97,43 %
23.08.2023 23:00 19,6 C 18,2 C 14,6 C 80 % 1018,9 hPa 0,0 l/m 0,00 h 0,00 h 0 W/m 0,0 km/h (0 Bft) 96,99 %
24.08.2023 00:00 18,8 C 17,5 C 14,1 C 84 % 1018,8 hPa 0,0 l/m 0,00 h 0,00 h 0 W/m 0,1 km/h (0 Bft) 99,17 %
24.08.2023 01:00 18,5 C 17,5 C 13,9 C 87 % 1018,7 hPa 0,0 l/m 0,00 h 0,00 h 0 W/m 0,4 km/h (0 Bft) 95,31 %
24.08.2023 02:00 18,4 C 16,9 C 13,7 C 90 % 1018,3 hPa 0,0 l/m 0,00 h 0,00 h 0 W/m 0,0 km/h (0 Bft) 97,46 %
24.08.2023 03:00 17,8 C 16,5 C 13,2 C 92 % 1018,1 hPa 0,0 l/m 0,00 h 0,00 h 0 W/m 0,1 km/h (0 Bft) 98,86 %
24.08.2023 04:00 17,4 C 16,1 C 12,9 C 93 % 1017,7 hPa 0,0 l/m 0,00 h 0,00 h 0 W/m 0,0 km/h (0 Bft) 96,57 %
24.08.2023 05:00 17,4 C 16,8 C 13,5 C 94 % 1017,7 hPa 0,0 l/m 0,00 h 0,17 h 0 W/m 0,1 km/h (0 Bft) 98,51 %
24.08.2023 06:00 17,8 C 16,9 C 13,1 C 95 % 1016,9 hPa 0,6 l/m 0,00 h 0,53 h 5 W/m 2,4 km/h (1 Bft) 97,59 %
24.08.2023 07:00 17,9 C 17,3 C 13,4 C 96 % 1016,4 hPa 0,0 l/m 0,00 h 0,00 h 16 W/m 4,3 km/h (1 Bft) 98,04 %
24.08.2023 08:00 18,4 C 18,3 C 14,4 C 95 % 1015,8 hPa 0,0 l/m 0,20 h 0,00 h 91 W/m 4,8 km/h (1 Bft) 96,93 %
24.08.2023 09:00 20,4 C 23,6 C 16,4 C 92 % 1015,5 hPa 0,0 l/m 0,63 h 0,00 h 256 W/m 4,9 km/h (1 Bft) 98,29 %
24.08.2023 10:00 22,9 C 23,8 C 18,6 C 80 % 1015,3 hPa 0,0 l/m 0,57 h 0,00 h 282 W/m 7,0 km/h (2 Bft) 97,29 %
24.08.2023 11:00 25,0 C 26,4 C 20,6 C 74 % 1014,1 hPa 0,0 l/m 1,00 h 0,00 h 435 W/m 7,5 km/h (2 Bft) 98,30 %
24.08.2023 12:00 26,6 C 27,8 C 22,2 C 69 % 1014,3 hPa 0,0 l/m 0,90 h 0,00 h 406 W/m 8,9 km/h (2 Bft) 97,27 %
24.08.2023 13:00 26,9 C 26,7 C 22,0 C 68 % 1014,4 hPa 0,0 l/m 0,00 h 0,00 h 247 W/m 10,5 km/h (2 Bft) 97,30 %
24.08.2023 14:00 25,3 C 24,2 C 18,2 C 79 % 1013,6 hPa 0,4 l/m 0,00 h 0,63 h 151 W/m 9,0 km/h (2 Bft) 98,49 %
24.08.2023 15:00 24,6 C 24,5 C 17,8 C 85 % 1013,1 hPa 0,0 l/m 0,00 h 0,03 h 185 W/m 9,3 km/h (2 Bft) 95,94 %
24.08.2023 16:00 24,5 C 23,5 C 18,0 C 86 % 1012,9 hPa 0,2 l/m 0,00 h 0,73 h 77 W/m 8,0 km/h (2 Bft) 99,06 %
24.08.2023 17:00 22,7 C 21,5 C 16,6 C 89 % 1012,7 hPa 0,6 l/m 0,00 h 0,98 h 38 W/m 14,3 km/h (3 Bft) 98,65 %
24.08.2023 18:00 21,7 C 21,1 C 16,1 C 92 % 1011,6 hPa 0,0 l/m 0,00 h 0,17 h 94 W/m 5,3 km/h (1 Bft) 95,64 %
24.08.2023 19:00 21,7 C 21,1 C 16,1 C 92 % 1010,7 hPa 0,0 l/m 0,00 h 0,00 h 53 W/m 2,8 km/h (1 Bft) 97,53 %
24.08.2023 20:00 21,3 C 20,3 C 16,6 C 91 % 1010,8 hPa 0,0 l/m 0,27 h 0,00 h 23 W/m 2,2 km/h (1 Bft) 98,23 %
24.08.2023 21:00 20,6 C 18,8 C 15,5 C 92 % 1010,8 hPa 0,0 l/m 0,00 h 0,00 h 0 W/m 0,0 km/h (0 Bft) 93,26 %
24.08.2023 22:00 19,8 C 18,6 C 15,4 C 94 % 1010,5 hPa 0,0 l/m 0,00 h 0,00 h 0 W/m 1,3 km/h (1 Bft) 99,55 %
24.08.2023 23:00 19,7 C 18,7 C 15,5 C 96 % 1011,3 hPa 0,0 l/m 0,00 h 0,00 h 0 W/m 2,1 km/h (1 Bft) 97,15 %
25.08.2023 00:00 19,7 C 18,9 C 15,6 C 96 % 1011,0 hPa 0,0 l/m 0,00 h 0,00 h 0 W/m 2,1 km/h (1 Bft) 94,23 %
25.08.2023 01:00 19,3 C 18,0 C 15,1 C 96 % 1010,5 hPa 0,0 l/m 0,00 h 0,00 h 0 W/m 5,7 km/h (1 Bft) 98,54 %
25.08.2023 02:00 18,7 C 17,8 C 14,7 C 97 % 1009,9 hPa 0,0 l/m 0,00 h 0,00 h 0 W/m 6,3 km/h (2 Bft) 97,48 %
25.08.2023 03:00 18,4 C 17,2 C 14,4 C 97 % 1009,8 hPa 0,0 l/m 0,00 h 0,00 h 0 W/m 2,0 km/h (1 Bft) 96,98 %
25.08.2023 04:00 18,1 C 17,0 C 14,1 C 97 % 1009,3 hPa 0,0 l/m 0,00 h 0,00 h 0 W/m 2,1 km/h (1 Bft) 98,55 %
25.08.2023 05:00 17,6 C 16,5 C 13,4 C 97 % 1008,8 hPa 0,0 l/m 0,00 h 0,00 h 0 W/m 0,1 km/h (0 Bft) 97,00 %
25.08.2023 06:00 17,2 C 16,2 C 13,3 C 98 % 1008,7 hPa 0,0 l/m 0,00 h 0,00 h 6 W/m 0,2 km/h (0 Bft) 96,49 %
25.08.2023 07:00 17,4 C 16,9 C 13,7 C 98 % 1008,5 hPa 0,2 l/m 0,00 h 0,00 h 27 W/m 1,7 km/h (1 Bft) 98,41 %
25.08.2023 08:00 18,2 C 18,4 C 14,9 C 99 % 1008,2 hPa 0,2 l/m 0,00 h 0,27 h 66 W/m 3,2 km/h (1 Bft) 96,96 %
25.08.2023 09:00 18,6 C 17,7 C 14,4 C 98 % 1008,8 hPa 2,0 l/m 0,00 h 1,00 h 13 W/m 5,1 km/h (1 Bft) 98,15 %
25.08.2023 10:00 18,4 C 17,4 C 14,3 C 99 % 1008,8 hPa 2,4 l/m 0,00 h 0,90 h 33 W/m 5,5 km/h (1 Bft) 96,74 %
25.08.2023 11:00 18,3 C 17,2 C 14,2 C 99 % 1009,2 hPa 14,6 l/m 0,00 h 0,60 h 23 W/m 7,0 km/h (2 Bft) 98,15 %
25.08.2023 12:00 18,0 C 16,8 C 14,0 C 99 % 1008,9 hPa 6,4 l/m 0,00 h 1,00 h 34 W/m 7,3 km/h (2 Bft) 97,27 %
25.08.2023 13:00 19,0 C 19,0 C 15,3 C 100 % 1008,8 hPa 0,4 l/m 0,17 h 0,40 h 256 W/m 5,4 km/h (1 Bft) 97,46 %
25.08.2023 14:00 20,4 C 21,5 C 16,6 C 100 % 1008,6 hPa 0,0 l/m 0,30 h 0,00 h 341 W/m 9,8 km/h (2 Bft) 96,65 %
25.08.2023 15:00 22,0 C 24,1 C 17,1 C 95 % 1008,3 hPa 0,0 l/m 0,77 h 0,00 h 517 W/m 12,3 km/h (3 Bft) 99,57 %
25.08.2023 16:00 23,6 C 23,7 C 18,0 C 88 % 1008,1 hPa 0,0 l/m 0,30 h 0,00 h 242 W/m 11,0 km/h (2 Bft) 96,51 %
25.08.2023 17:00 23,5 C 23,0 C 18,0 C 89 % 1008,0 hPa 0,2 l/m 0,13 h 0,10 h 136 W/m 6,2 km/h (2 Bft) 98,15 %
25.08.2023 18:00 23,3 C 23,6 C 17,3 C 90 % 1007,9 hPa 0,2 l/m 0,30 h 0,00 h 152 W/m 6,9 km/h (2 Bft) 98,27 %
25.08.2023 19:00 22,5 C 21,6 C 16,6 C 90 % 1007,9 hPa 0,0 l/m 0,17 h 0,00 h 58 W/m 8,5 km/h (2 Bft) 96,86 %
25.08.2023 20:00 21,6 C 20,6 C 15,8 C 89 % 1008,3 hPa 0,0 l/m 0,43 h 0,00 h 22 W/m 7,5 km/h (2 Bft) 97,45 %
25.08.2023 21:00 20,6 C 19,3 C 16,0 C 91 % 1008,8 hPa 0,0 l/m 0,00 h 0,00 h 0 W/m 3,0 km/h (1 Bft) 99,41 %
25.08.2023 22:00 19,9 C 18,9 C 15,6 C 93 % 1009,1 hPa 0,0 l/m 0,00 h 0,00 h 0 W/m 3,6 km/h (1 Bft) 94,72 %
25.08.2023 23:00 19,4 C 18,2 C 15,1 C 94 % 1009,2 hPa 0,0 l/m 0,00 h 0,10 h 0 W/m 2,5 km/h (1 Bft) 98,87 %
26.08.2023 00:00 19,0 C 18,2 C 15,0 C 95 % 1009,7 hPa 0,0 l/m 0,00 h 0,00 h 0 W/m 7,9 km/h (2 Bft) 97,98 %
26.08.2023 01:00 18,4 C 17,8 C 14,6 C 93 % 1009,7 hPa 0,0 l/m 0,00 h 0,00 h 0 W/m 4,5 km/h (1 Bft) 95,81 %
26.08.2023 02:00 18,2 C 17,3 C 14,4 C 93 % 1010,0 hPa 0,0 l/m 0,00 h 0,03 h 0 W/m 4,6 km/h (1 Bft) 98,31 %
26.08.2023 03:00 17,1 C 16,3 C 13,3 C 90 % 1010,3 hPa 0,0 l/m 0,00 h 0,00 h 0 W/m 13,4 km/h (3 Bft) 99,35 %
26.08.2023 04:00 15,4 C 14,6 C 11,7 C 87 % 1010,8 hPa 0,0 l/m 0,00 h 0,00 h 0 W/m 9,4 km/h (2 Bft) 93,86 %
26.08.2023 05:00 14,6 C 13,8 C 11,0 C 89 % 1011,0 hPa 0,0 l/m 0,00 h 0,00 h 0 W/m 12,8 km/h (3 Bft) 98,85 %
26.08.2023 06:00 14,0 C 13,3 C 10,6 C 90 % 1011,2 hPa 0,0 l/m 0,00 h 0,00 h 8 W/m 12,8 km/h (3 Bft) 97,93 %
26.08.2023 07:00 14,0 C 13,6 C 10,7 C 90 % 1011,7 hPa 0,0 l/m 0,00 h 0,00 h 21 W/m 13,7 km/h (3 Bft) 96,01 %
26.08.2023 08:00 14,9 C 14,6 C 11,4 C 86 % 1011,8 hPa 0,0 l/m 0,17 h 0,00 h 83 W/m 18,0 km/h (3 Bft) 97,62 %
26.08.2023 09:00 16,5 C 17,5 C 12,5 C 82 % 1011,7 hPa 0,0 l/m 0,60 h 0,00 h 241 W/m 19,4 km/h (3 Bft) 96,58 %
26.08.2023 10:00 18,1 C 18,2 C 14,3 C 76 % 1011,8 hPa 0,0 l/m 0,33 h 0,00 h 242 W/m 16,2 km/h (3 Bft) 97,37 %
26.08.2023 11:00 19,3 C 21,0 C 16,1 C 72 % 1012,0 hPa 0,0 l/m 0,83 h 0,00 h 598 W/m 18,7 km/h (3 Bft) 97,94 %
26.08.2023 12:00 20,7 C 23,8 C 18,4 C 68 % 1011,9 hPa 0,0 l/m 0,97 h 0,00 h 718 W/m 16,4 km/h (3 Bft) 98,16 %
26.08.2023 13:00 21,7 C 22,0 C 17,6 C 65 % 1011,7 hPa 0,0 l/m 0,47 h 0,00 h 412 W/m 17,1 km/h (3 Bft) 95,86 %
26.08.2023 14:00 21,5 C 22,2 C 17,2 C 65 % 1011,5 hPa 0,0 l/m 0,03 h 0,00 h 241 W/m 13,4 km/h (3 Bft) 99,30 %
26.08.2023 15:00 22,4 C 23,4 C 17,8 C 62 % 1011,4 hPa 0,0 l/m 0,57 h 0,00 h 562 W/m 18,9 km/h (3 Bft) 96,57 %
26.08.2023 16:00 23,0 C 23,2 C 18,2 C 60 % 1011,2 hPa 0,0 l/m 0,93 h 0,00 h 600 W/m 17,4 km/h (3 Bft) 98,01 %
26.08.2023 17:00 23,3 C 25,8 C 18,6 C 58 % 1010,8 hPa 0,0 l/m 0,97 h 0,00 h 435 W/m 15,0 km/h (3 Bft) 96,83 %
26.08.2023 18:00 23,0 C 24,4 C 18,6 C 59 % 1010,4 hPa 0,0 l/m 0,80 h 0,00 h 235 W/m 12,0 km/h (2 Bft) 98,64 %
26.08.2023 19:00 22,2 C 21,5 C 17,5 C 63 % 1010,6 hPa 0,0 l/m 0,00 h 0,00 h 58 W/m 8,6 km/h (2 Bft) 98,51 %
26.08.2023 20:00 20,7 C 19,4 C 15,5 C 69 % 1011,2 hPa 0,0 l/m 0,00 h 0,00 h 13 W/m 1,8 km/h (1 Bft) 95,93 %
26.08.2023 21:00 19,4 C 17,7 C 13,9 C 76 % 1011,5 hPa 0,0 l/m 0,00 h 0,00 h 0 W/m 2,2 km/h (1 Bft) 98,58 %
26.08.2023 22:00 17,8 C 16,2 C 12,6 C 83 % 1011,4 hPa 0,0 l/m 0,00 h 0,00 h 0 W/m 0,1 km/h (0 Bft) 97,67 %
26.08.2023 23:00 16,9 C 15,8 C 12,1 C 88 % 1011,3 hPa 0,2 l/m 0,00 h 0,20 h 0 W/m 1,1 km/h (0 Bft) 96,66 %
27.08.2023 00:00 16,8 C 15,5 C 11,8 C 92 % 1011,4 hPa 0,8 l/m 0,00 h 0,20 h 0 W/m 2,2 km/h (1 Bft) 94,67 %
27.08.2023 01:00 16,0 C 14,6 C 11,1 C 94 % 1010,9 hPa 0,0 l/m 0,00 h 0,00 h 0 W/m 0,0 km/h (0 Bft) 97,47 %
27.08.2023 02:00 15,3 C 14,1 C 10,5 C 95 % 1010,1 hPa 0,0 l/m 0,00 h 0,00 h 0 W/m 0,0 km/h (0 Bft) 97,16 %
27.08.2023 03:00 14,7 C 13,4 C 10,0 C 96 % 1010,1 hPa 0,0 l/m 0,00 h 0,00 h 0 W/m 0,0 km/h (0 Bft) 96,74 %
27.08.2023 04:00 14,2 C 13,0 C 9,5 C 96 % 1009,7 hPa 0,0 l/m 0,00 h 0,00 h 0 W/m 0,0 km/h (0 Bft) 97,72 %
27.08.2023 05:00 13,8 C 12,8 C 9,4 C 96 % 1009,2 hPa 0,0 l/m 0,00 h 0,00 h 0 W/m 0,0 km/h (0 Bft) 97,69 %
27.08.2023 06:00 13,8 C 13,3 C 9,8 C 97 % 1009,4 hPa 0,4 l/m 0,00 h 0,33 h 0 W/m 2,0 km/h (1 Bft) 96,69 %
27.08.2023 07:00 14,2 C 13,7 C 10,1 C 97 % 1009,5 hPa 0,0 l/m 0,00 h 0,07 h 15 W/m 0,5 km/h (0 Bft) 98,12 %
27.08.2023 08:00 14,6 C 14,4 C 10,6 C 98 % 1009,7 hPa 0,0 l/m 0,00 h 0,10 h 71 W/m 0,6 km/h (0 Bft) 97,74 %
27.08.2023 09:00 15,4 C 16,6 C 11,2 C 97 % 1009,8 hPa 0,0 l/m 0,50 h 0,00 h 231 W/m 5,7 km/h (1 Bft) 97,59 %
27.08.2023 10:00 17,0 C 17,9 C 13,4 C 88 % 1009,9 hPa 0,0 l/m 0,47 h 0,00 h 273 W/m 10,1 km/h (2 Bft) 97,13 %
27.08.2023 11:00 18,5 C 20,0 C 15,6 C 81 % 1009,8 hPa 0,0 l/m 0,77 h 0,00 h 458 W/m 12,4 km/h (3 Bft) 98,15 %
27.08.2023 12:00 20,0 C 23,3 C 17,3 C 74 % 1009,3 hPa 0,0 l/m 0,70 h 0,00 h 585 W/m 17,8 km/h (3 Bft) 97,62 %
27.08.2023 13:00 20,8 C 21,2 C 16,6 C 71 % 1009,0 hPa 0,0 l/m 0,40 h 0,00 h 415 W/m 12,8 km/h (3 Bft) 99,00 %
27.08.2023 14:00 21,4 C 24,3 C 16,6 C 66 % 1008,9 hPa 0,4 l/m 0,63 h 0,03 h 548 W/m 16,5 km/h (3 Bft) 94,69 %
27.08.2023 15:00 17,3 C 16,5 C 11,3 C 86 % 1009,6 hPa 3,2 l/m 0,53 h 0,20 h 419 W/m 7,9 km/h (2 Bft) 99,51 %
27.08.2023 16:00 16,5 C 15,4 C 10,8 C 87 % 1010,0 hPa 1,4 l/m 0,07 h 0,80 h 111 W/m 10,8 km/h (2 Bft) 98,29 %
27.08.2023 17:00 17,0 C 19,4 C 11,6 C 90 % 1009,9 hPa 0,2 l/m 0,87 h 0,00 h 371 W/m 9,4 km/h (2 Bft) 96,34 %
27.08.2023 18:00 18,1 C 20,0 C 12,3 C 81 % 1010,1 hPa 0,0 l/m 0,77 h 0,00 h 215 W/m 9,9 km/h (2 Bft) 98,08 %
27.08.2023 19:00 17,6 C 16,8 C 12,8 C 82 % 1010,5 hPa 0,0 l/m 0,00 h 0,00 h 49 W/m 7,9 km/h (2 Bft) 98,46 %
27.08.2023 20:00 16,7 C 15,3 C 12,8 C 85 % 1011,0 hPa 0,0 l/m 0,00 h 0,00 h 10 W/m 1,3 km/h (1 Bft) 97,02 %
27.08.2023 21:00 15,7 C 14,1 C 12,8 C 88 % 1011,5 hPa 0,0 l/m 0,00 h 0,00 h 0 W/m 1,5 km/h (1 Bft) 99,47 %
27.08.2023 22:00 14,8 C 13,6 C 11,7 C 90 % 1012,1 hPa 0,0 l/m 0,00 h 0,00 h 0 W/m 1,8 km/h (1 Bft) 97,94 %
27.08.2023 23:00 14,3 C 13,2 C 10,3 C 92 % 1012,5 hPa 0,0 l/m 0,00 h 0,00 h 0 W/m 2,6 km/h (1 Bft) 96,79 %
Min-Datum _ 27.08.23 27.08.23 27.08.23 23.08.23 25.08.23 - - - - 21.08.23 27.08.23
_ Min-Zeit 05:44 04:20 03:52 17:10 18:22 - - - - 00:00 00:02
Minimum _ 13,7 C 12,8 C 9,4 C 44 % 1007,7 hPa - - - - 0,0 km/h (0 Bft) 11,76 %
Max-Datum _ 23.08.23 21.08.23 21.08.23 25.08.23 21.08.23 25.08.23 21.08.23 24.08.23 22.08.23 27.08.23 21.08.23
_ Max-Zeit 17:34 14:48 18:10 13:06 11:04 11:10 15:17 17:40 14:34 15:02 00:00
Maximum _ 28,7 C 35,6 C 23,9 C 100 % 1023,5 hPa 14,6 l/m 0,08 h 0,08 h 1005 W/m 38,6 km/h
NO (5 Bft)
100,00 %
Durchschnitt _ 20,2 C 20,1 C 15,7 C 83 % 1015,4 hPa #35,0 l/m #43:16 h #9:35 h 270 W/m 5,4 km/h (1 Bft) 97,52 %
© 2023 W. Hausmann